sensor_id;sensor_type;location;lat;lon;timestamp;P1;durP1;ratioP1;P2;durP2;ratioP2
4084;SDS011;2057;50.858;6.572;2023-12-20T00:00:34;11.70;;;8.20;;
4084;SDS011;2057;50.858;6.572;2023-12-20T00:03:02;10.13;;;7.27;;
4084;SDS011;2057;50.858;6.572;2023-12-20T00:05:27;8.90;;;7.83;;
4084;SDS011;2057;50.858;6.572;2023-12-20T00:07:53;8.80;;;7.23;;
4084;SDS011;2057;50.858;6.572;2023-12-20T00:10:18;9.13;;;6.63;;
4084;SDS011;2057;50.858;6.572;2023-12-20T00:12:43;9.93;;;6.70;;
4084;SDS011;2057;50.858;6.572;2023-12-20T00:15:11;9.20;;;7.10;;
4084;SDS011;2057;50.858;6.572;2023-12-20T00:17:36;9.47;;;7.40;;
4084;SDS011;2057;50.858;6.572;2023-12-20T00:20:02;8.77;;;6.90;;
4084;SDS011;2057;50.858;6.572;2023-12-20T00:22:27;11.67;;;8.50;;
4084;SDS011;2057;50.858;6.572;2023-12-20T00:24:53;9.93;;;8.10;;
4084;SDS011;2057;50.858;6.572;2023-12-20T00:27:18;11.00;;;7.60;;
4084;SDS011;2057;50.858;6.572;2023-12-20T00:29:43;16.07;;;9.57;;
4084;SDS011;2057;50.858;6.572;2023-12-20T00:32:12;13.93;;;8.80;;
4084;SDS011;2057;50.858;6.572;2023-12-20T00:34:38;16.93;;;8.63;;
4084;SDS011;2057;50.858;6.572;2023-12-20T00:37:03;15.70;;;11.00;;
4084;SDS011;2057;50.858;6.572;2023-12-20T00:39:29;16.90;;;10.67;;
4084;SDS011;2057;50.858;6.572;2023-12-20T00:41:54;14.30;;;10.20;;
4084;SDS011;2057;50.858;6.572;2023-12-20T00:44:19;15.93;;;11.20;;
4084;SDS011;2057;50.858;6.572;2023-12-20T00:46:45;15.03;;;12.50;;
4084;SDS011;2057;50.858;6.572;2023-12-20T00:49:10;18.77;;;12.33;;
4084;SDS011;2057;50.858;6.572;2023-12-20T00:51:35;20.13;;;12.10;;
4084;SDS011;2057;50.858;6.572;2023-12-20T00:54:00;17.10;;;12.40;;
4084;SDS011;2057;50.858;6.572;2023-12-20T00:59:01;28.60;;;15.27;;
4084;SDS011;2057;50.858;6.572;2023-12-20T01:01:26;17.80;;;13.07;;
4084;SDS011;2057;50.858;6.572;2023-12-20T01:03:52;22.67;;;15.00;;
4084;SDS011;2057;50.858;6.572;2023-12-20T01:06:17;27.47;;;17.07;;
4084;SDS011;2057;50.858;6.572;2023-12-20T01:08:43;25.43;;;15.57;;
4084;SDS011;2057;50.858;6.572;2023-12-20T01:11:08;22.63;;;16.60;;
4084;SDS011;2057;50.858;6.572;2023-12-20T01:13:33;25.53;;;15.50;;
4084;SDS011;2057;50.858;6.572;2023-12-20T01:15:59;25.10;;;15.73;;
4084;SDS011;2057;50.858;6.572;2023-12-20T01:18:24;22.97;;;15.77;;
4084;SDS011;2057;50.858;6.572;2023-12-20T01:20:53;26.13;;;15.73;;
4084;SDS011;2057;50.858;6.572;2023-12-20T01:23:18;26.13;;;15.47;;
4084;SDS011;2057;50.858;6.572;2023-12-20T01:25:44;51.20;;;17.90;;
4084;SDS011;2057;50.858;6.572;2023-12-20T01:28:11;19.98;;;12.32;;
4084;SDS011;2057;50.858;6.572;2023-12-20T01:30:37;16.93;;;11.50;;
4084;SDS011;2057;50.858;6.572;2023-12-20T01:33:03;20.57;;;12.43;;
4084;SDS011;2057;50.858;6.572;2023-12-20T01:35:28;26.47;;;11.80;;
4084;SDS011;2057;50.858;6.572;2023-12-20T01:37:53;24.30;;;9.27;;
4084;SDS011;2057;50.858;6.572;2023-12-20T01:40:22;21.45;;;8.35;;
4084;SDS011;2057;50.858;6.572;2023-12-20T01:42:57;21.00;;;6.47;;
4084;SDS011;2057;50.858;6.572;2023-12-20T01:45:26;12.45;;;5.53;;
4084;SDS011;2057;50.858;6.572;2023-12-20T01:47:51;26.83;;;5.50;;
4084;SDS011;2057;50.858;6.572;2023-12-20T01:50:17;13.90;;;4.90;;
4084;SDS011;2057;50.858;6.572;2023-12-20T01:52:42;17.83;;;6.87;;
4084;SDS011;2057;50.858;6.572;2023-12-20T01:55:09;18.40;;;5.03;;
4084;SDS011;2057;50.858;6.572;2023-12-20T01:57:40;15.88;;;4.57;;
4084;SDS011;2057;50.858;6.572;2023-12-20T02:00:12;18.52;;;4.00;;
4084;SDS011;2057;50.858;6.572;2023-12-20T02:02:40;13.48;;;3.70;;
4084;SDS011;2057;50.858;6.572;2023-12-20T02:05:06;16.03;;;4.63;;
4084;SDS011;2057;50.858;6.572;2023-12-20T02:07:32;18.33;;;4.30;;
4084;SDS011;2057;50.858;6.572;2023-12-20T02:10:00;11.68;;;2.50;;
4084;SDS011;2057;50.858;6.572;2023-12-20T02:12:31;26.73;;;4.30;;
4084;SDS011;2057;50.858;6.572;2023-12-20T02:14:56;12.00;;;3.60;;
4084;SDS011;2057;50.858;6.572;2023-12-20T02:17:21;26.53;;;3.97;;
4084;SDS011;2057;50.858;6.572;2023-12-20T02:19:47;15.67;;;4.03;;
4084;SDS011;2057;50.858;6.572;2023-12-20T02:22:14;19.90;;;3.50;;
4084;SDS011;2057;50.858;6.572;2023-12-20T02:24:40;9.03;;;3.20;;
4084;SDS011;2057;50.858;6.572;2023-12-20T02:27:06;18.87;;;5.57;;
4084;SDS011;2057;50.858;6.572;2023-12-20T02:29:33;16.88;;;3.35;;
4084;SDS011;2057;50.858;6.572;2023-12-20T02:31:59;23.55;;;3.75;;
4084;SDS011;2057;50.858;6.572;2023-12-20T02:34:24;33.57;;;3.00;;
4084;SDS011;2057;50.858;6.572;2023-12-20T02:36:49;18.87;;;4.80;;
4084;SDS011;2057;50.858;6.572;2023-12-20T02:39:15;21.93;;;3.80;;
4084;SDS011;2057;50.858;6.572;2023-12-20T02:41:43;12.53;;;2.97;;
4084;SDS011;2057;50.858;6.572;2023-12-20T02:44:09;23.45;;;4.55;;
4084;SDS011;2057;50.858;6.572;2023-12-20T02:46:34;22.67;;;4.37;;
4084;SDS011;2057;50.858;6.572;2023-12-20T02:49:00;14.20;;;3.73;;
4084;SDS011;2057;50.858;6.572;2023-12-20T02:51:25;18.30;;;5.53;;
4084;SDS011;2057;50.858;6.572;2023-12-20T02:53:50;13.90;;;4.00;;
4084;SDS011;2057;50.858;6.572;2023-12-20T02:56:16;28.27;;;4.53;;
4084;SDS011;2057;50.858;6.572;2023-12-20T02:58:41;22.40;;;3.83;;
4084;SDS011;2057;50.858;6.572;2023-12-20T03:01:06;18.27;;;3.60;;
4084;SDS011;2057;50.858;6.572;2023-12-20T03:03:32;28.93;;;6.40;;
4084;SDS011;2057;50.858;6.572;2023-12-20T03:05:57;19.93;;;3.87;;
4084;SDS011;2057;50.858;6.572;2023-12-20T03:08:23;31.90;;;4.93;;
4084;SDS011;2057;50.858;6.572;2023-12-20T03:10:50;18.75;;;5.00;;
4084;SDS011;2057;50.858;6.572;2023-12-20T03:13:18;33.33;;;5.00;;
4084;SDS011;2057;50.858;6.572;2023-12-20T03:15:45;31.08;;;4.70;;
4084;SDS011;2057;50.858;6.572;2023-12-20T03:18:11;27.10;;;4.63;;
4084;SDS011;2057;50.858;6.572;2023-12-20T03:20:36;22.03;;;4.40;;
4084;SDS011;2057;50.858;6.572;2023-12-20T03:23:02;24.17;;;4.80;;
4084;SDS011;2057;50.858;6.572;2023-12-20T03:25:27;29.07;;;4.60;;
4084;SDS011;2057;50.858;6.572;2023-12-20T03:27:56;22.17;;;4.97;;
4084;SDS011;2057;50.858;6.572;2023-12-20T03:30:21;18.37;;;4.77;;
4084;SDS011;2057;50.858;6.572;2023-12-20T03:32:47;27.77;;;5.63;;
4084;SDS011;2057;50.858;6.572;2023-12-20T03:35:12;27.17;;;5.83;;
4084;SDS011;2057;50.858;6.572;2023-12-20T03:37:38;19.73;;;5.00;;
4084;SDS011;2057;50.858;6.572;2023-12-20T03:40:03;19.67;;;5.03;;
4084;SDS011;2057;50.858;6.572;2023-12-20T03:42:29;23.77;;;6.00;;
4084;SDS011;2057;50.858;6.572;2023-12-20T03:44:54;15.27;;;5.13;;
4084;SDS011;2057;50.858;6.572;2023-12-20T03:47:22;26.83;;;5.00;;
4084;SDS011;2057;50.858;6.572;2023-12-20T03:49:47;22.70;;;4.60;;
4084;SDS011;2057;50.858;6.572;2023-12-20T03:52:13;17.53;;;5.40;;
4084;SDS011;2057;50.858;6.572;2023-12-20T03:54:40;38.63;;;6.65;;
4084;SDS011;2057;50.858;6.572;2023-12-20T03:57:07;16.63;;;5.50;;
4084;SDS011;2057;50.858;6.572;2023-12-20T03:59:36;27.87;;;5.27;;
4084;SDS011;2057;50.858;6.572;2023-12-20T04:02:03;20.73;;;5.55;;
4084;SDS011;2057;50.858;6.572;2023-12-20T04:04:29;23.27;;;5.82;;
4084;SDS011;2057;50.858;6.572;2023-12-20T04:06:54;39.97;;;7.60;;
4084;SDS011;2057;50.858;6.572;2023-12-20T04:09:20;22.53;;;6.03;;
4084;SDS011;2057;50.858;6.572;2023-12-20T04:11:48;28.23;;;6.38;;
4084;SDS011;2057;50.858;6.572;2023-12-20T04:14:13;27.43;;;6.23;;
4084;SDS011;2057;50.858;6.572;2023-12-20T04:16:39;35.17;;;6.33;;
4084;SDS011;2057;50.858;6.572;2023-12-20T04:19:04;18.13;;;7.30;;
4084;SDS011;2057;50.858;6.572;2023-12-20T04:21:32;28.77;;;5.95;;
4084;SDS011;2057;50.858;6.572;2023-12-20T04:23:57;13.63;;;5.60;;
4084;SDS011;2057;50.858;6.572;2023-12-20T04:26:23;29.37;;;5.93;;
4084;SDS011;2057;50.858;6.572;2023-12-20T04:28:48;24.37;;;5.73;;
4084;SDS011;2057;50.858;6.572;2023-12-20T04:31:13;13.23;;;6.97;;
4084;SDS011;2057;50.858;6.572;2023-12-20T04:33:39;26.77;;;4.77;;
4084;SDS011;2057;50.858;6.572;2023-12-20T04:36:04;28.07;;;6.53;;
4084;SDS011;2057;50.858;6.572;2023-12-20T04:38:30;24.37;;;6.70;;
4084;SDS011;2057;50.858;6.572;2023-12-20T04:40:55;32.93;;;7.07;;
4084;SDS011;2057;50.858;6.572;2023-12-20T04:43:20;21.50;;;6.30;;
4084;SDS011;2057;50.858;6.572;2023-12-20T04:45:49;26.50;;;7.30;;
4084;SDS011;2057;50.858;6.572;2023-12-20T04:48:14;27.03;;;6.70;;
4084;SDS011;2057;50.858;6.572;2023-12-20T04:50:39;30.07;;;6.73;;
4084;SDS011;2057;50.858;6.572;2023-12-20T04:53:05;20.20;;;6.83;;
4084;SDS011;2057;50.858;6.572;2023-12-20T04:55:32;20.42;;;6.15;;
4084;SDS011;2057;50.858;6.572;2023-12-20T04:57:58;26.27;;;7.07;;
4084;SDS011;2057;50.858;6.572;2023-12-20T05:00:23;31.67;;;6.90;;
4084;SDS011;2057;50.858;6.572;2023-12-20T05:02:48;50.10;;;7.80;;
4084;SDS011;2057;50.858;6.572;2023-12-20T05:05:14;26.83;;;6.60;;
4084;SDS011;2057;50.858;6.572;2023-12-20T05:07:40;31.98;;;7.30;;
4084;SDS011;2057;50.858;6.572;2023-12-20T05:10:05;26.83;;;5.77;;
4084;SDS011;2057;50.858;6.572;2023-12-20T05:12:33;25.30;;;5.57;;
4084;SDS011;2057;50.858;6.572;2023-12-20T05:14:58;27.47;;;6.73;;
4084;SDS011;2057;50.858;6.572;2023-12-20T05:17:24;25.50;;;6.67;;
4084;SDS011;2057;50.858;6.572;2023-12-20T05:19:50;19.83;;;7.50;;
4084;SDS011;2057;50.858;6.572;2023-12-20T05:22:15;30.40;;;8.30;;
4084;SDS011;2057;50.858;6.572;2023-12-20T05:24:40;37.80;;;6.03;;
4084;SDS011;2057;50.858;6.572;2023-12-20T05:27:06;25.63;;;7.40;;
4084;SDS011;2057;50.858;6.572;2023-12-20T05:29:31;45.63;;;8.00;;
4084;SDS011;2057;50.858;6.572;2023-12-20T05:31:57;44.10;;;9.93;;
4084;SDS011;2057;50.858;6.572;2023-12-20T05:34:23;28.25;;;5.43;;
4084;SDS011;2057;50.858;6.572;2023-12-20T05:36:49;42.67;;;6.87;;
4084;SDS011;2057;50.858;6.572;2023-12-20T05:39:14;25.57;;;6.33;;
4084;SDS011;2057;50.858;6.572;2023-12-20T05:41:39;26.20;;;7.57;;
4084;SDS011;2057;50.858;6.572;2023-12-20T05:44:05;26.33;;;7.07;;
4084;SDS011;2057;50.858;6.572;2023-12-20T05:46:30;24.77;;;6.17;;
4084;SDS011;2057;50.858;6.572;2023-12-20T05:48:55;27.57;;;6.83;;
4084;SDS011;2057;50.858;6.572;2023-12-20T05:51:23;24.73;;;6.03;;
4084;SDS011;2057;50.858;6.572;2023-12-20T05:53:48;24.67;;;7.60;;
4084;SDS011;2057;50.858;6.572;2023-12-20T05:56:14;23.25;;;5.25;;
4084;SDS011;2057;50.858;6.572;2023-12-20T05:58:40;18.57;;;6.50;;
4084;SDS011;2057;50.858;6.572;2023-12-20T06:01:06;29.70;;;6.57;;
4084;SDS011;2057;50.858;6.572;2023-12-20T06:03:33;37.28;;;8.15;;
4084;SDS011;2057;50.858;6.572;2023-12-20T06:05:59;24.70;;;7.50;;
4084;SDS011;2057;50.858;6.572;2023-12-20T06:08:25;27.80;;;6.80;;
4084;SDS011;2057;50.858;6.572;2023-12-20T06:10:51;40.77;;;8.50;;
4084;SDS011;2057;50.858;6.572;2023-12-20T06:13:16;24.97;;;5.23;;
4084;SDS011;2057;50.858;6.572;2023-12-20T06:15:42;19.87;;;5.70;;
4084;SDS011;2057;50.858;6.572;2023-12-20T06:18:07;14.87;;;4.70;;
4084;SDS011;2057;50.858;6.572;2023-12-20T06:20:33;32.50;;;6.33;;
4084;SDS011;2057;50.858;6.572;2023-12-20T06:22:58;22.17;;;6.43;;
4084;SDS011;2057;50.858;6.572;2023-12-20T06:25:23;29.73;;;5.53;;
4084;SDS011;2057;50.858;6.572;2023-12-20T06:27:49;35.47;;;6.57;;
4084;SDS011;2057;50.858;6.572;2023-12-20T06:30:15;43.60;;;5.83;;
4084;SDS011;2057;50.858;6.572;2023-12-20T06:32:41;20.70;;;4.82;;
4084;SDS011;2057;50.858;6.572;2023-12-20T06:35:07;21.63;;;5.40;;
4084;SDS011;2057;50.858;6.572;2023-12-20T06:37:34;27.42;;;7.05;;
4084;SDS011;2057;50.858;6.572;2023-12-20T06:40:00;26.97;;;6.90;;
4084;SDS011;2057;50.858;6.572;2023-12-20T06:42:25;49.43;;;5.90;;
4084;SDS011;2057;50.858;6.572;2023-12-20T06:44:50;46.37;;;6.90;;
4084;SDS011;2057;50.858;6.572;2023-12-20T06:47:16;40.43;;;7.87;;
4084;SDS011;2057;50.858;6.572;2023-12-20T06:49:41;30.47;;;6.80;;
4084;SDS011;2057;50.858;6.572;2023-12-20T06:52:06;37.17;;;6.03;;
4084;SDS011;2057;50.858;6.572;2023-12-20T06:54:38;24.13;;;6.45;;
4084;SDS011;2057;50.858;6.572;2023-12-20T06:57:03;37.17;;;7.57;;
4084;SDS011;2057;50.858;6.572;2023-12-20T06:59:29;20.20;;;6.25;;
4084;SDS011;2057;50.858;6.572;2023-12-20T07:01:55;28.20;;;8.23;;
4084;SDS011;2057;50.858;6.572;2023-12-20T07:04:20;41.43;;;7.53;;
4084;SDS011;2057;50.858;6.572;2023-12-20T07:06:47;39.60;;;5.68;;
4084;SDS011;2057;50.858;6.572;2023-12-20T07:09:13;41.70;;;8.40;;
4084;SDS011;2057;50.858;6.572;2023-12-20T07:11:39;29.83;;;6.00;;
4084;SDS011;2057;50.858;6.572;2023-12-20T07:14:04;21.43;;;6.37;;
4084;SDS011;2057;50.858;6.572;2023-12-20T07:16:30;32.33;;;6.80;;
4084;SDS011;2057;50.858;6.572;2023-12-20T07:19:00;27.33;;;5.97;;
4084;SDS011;2057;50.858;6.572;2023-12-20T07:21:25;50.35;;;5.95;;
4084;SDS011;2057;50.858;6.572;2023-12-20T07:23:50;18.73;;;7.73;;
4084;SDS011;2057;50.858;6.572;2023-12-20T07:26:18;28.17;;;6.13;;
4084;SDS011;2057;50.858;6.572;2023-12-20T07:28:44;28.57;;;6.00;;
4084;SDS011;2057;50.858;6.572;2023-12-20T07:31:09;27.07;;;6.63;;
4084;SDS011;2057;50.858;6.572;2023-12-20T07:33:35;41.70;;;6.57;;
4084;SDS011;2057;50.858;6.572;2023-12-20T07:36:00;39.73;;;7.17;;
4084;SDS011;2057;50.858;6.572;2023-12-20T07:38:26;42.97;;;6.67;;
4084;SDS011;2057;50.858;6.572;2023-12-20T07:40:51;23.93;;;6.93;;
4084;SDS011;2057;50.858;6.572;2023-12-20T07:43:16;35.50;;;5.70;;
4084;SDS011;2057;50.858;6.572;2023-12-20T07:45:42;22.27;;;6.10;;
4084;SDS011;2057;50.858;6.572;2023-12-20T07:48:09;20.23;;;5.22;;
4084;SDS011;2057;50.858;6.572;2023-12-20T07:50:35;46.97;;;5.73;;
4084;SDS011;2057;50.858;6.572;2023-12-20T07:53:00;24.33;;;5.90;;
4084;SDS011;2057;50.858;6.572;2023-12-20T07:55:28;27.48;;;7.85;;
4084;SDS011;2057;50.858;6.572;2023-12-20T07:57:56;24.27;;;5.25;;
4084;SDS011;2057;50.858;6.572;2023-12-20T08:00:23;27.55;;;6.30;;
4084;SDS011;2057;50.858;6.572;2023-12-20T08:02:48;35.17;;;6.57;;
4084;SDS011;2057;50.858;6.572;2023-12-20T08:05:13;20.53;;;6.47;;
4084;SDS011;2057;50.858;6.572;2023-12-20T08:07:39;24.47;;;5.23;;
4084;SDS011;2057;50.858;6.572;2023-12-20T08:10:05;30.10;;;7.50;;
4084;SDS011;2057;50.858;6.572;2023-12-20T08:12:30;24.77;;;6.78;;
4084;SDS011;2057;50.858;6.572;2023-12-20T08:14:58;25.35;;;5.93;;
4084;SDS011;2057;50.858;6.572;2023-12-20T08:17:23;20.87;;;6.00;;
4084;SDS011;2057;50.858;6.572;2023-12-20T08:19:49;20.47;;;6.03;;
4084;SDS011;2057;50.858;6.572;2023-12-20T08:22:14;31.77;;;7.27;;
4084;SDS011;2057;50.858;6.572;2023-12-20T08:24:39;19.80;;;5.87;;
4084;SDS011;2057;50.858;6.572;2023-12-20T08:27:05;37.87;;;6.23;;
4084;SDS011;2057;50.858;6.572;2023-12-20T08:29:30;18.43;;;6.40;;
4084;SDS011;2057;50.858;6.572;2023-12-20T08:31:56;28.97;;;6.87;;
4084;SDS011;2057;50.858;6.572;2023-12-20T08:34:22;32.53;;;7.37;;
4084;SDS011;2057;50.858;6.572;2023-12-20T08:36:51;31.55;;;8.10;;
4084;SDS011;2057;50.858;6.572;2023-12-20T08:39:17;29.33;;;5.67;;
4084;SDS011;2057;50.858;6.572;2023-12-20T08:41:42;20.03;;;5.87;;
4084;SDS011;2057;50.858;6.572;2023-12-20T08:44:08;24.37;;;4.90;;
4084;SDS011;2057;50.858;6.572;2023-12-20T08:46:35;26.30;;;6.25;;
4084;SDS011;2057;50.858;6.572;2023-12-20T08:49:01;28.13;;;5.70;;
4084;SDS011;2057;50.858;6.572;2023-12-20T08:51:27;19.73;;;5.85;;
4084;SDS011;2057;50.858;6.572;2023-12-20T08:53:53;25.90;;;6.37;;
4084;SDS011;2057;50.858;6.572;2023-12-20T08:56:18;33.00;;;6.70;;
4084;SDS011;2057;50.858;6.572;2023-12-20T08:58:45;39.80;;;7.33;;
4084;SDS011;2057;50.858;6.572;2023-12-20T09:01:11;30.00;;;6.07;;
4084;SDS011;2057;50.858;6.572;2023-12-20T09:03:37;25.23;;;6.53;;
4084;SDS011;2057;50.858;6.572;2023-12-20T09:06:02;20.83;;;6.77;;
4084;SDS011;2057;50.858;6.572;2023-12-20T09:08:28;28.45;;;5.65;;
4084;SDS011;2057;50.858;6.572;2023-12-20T09:10:53;21.33;;;4.17;;
4084;SDS011;2057;50.858;6.572;2023-12-20T09:13:19;29.13;;;6.83;;
4084;SDS011;2057;50.858;6.572;2023-12-20T09:15:45;18.98;;;5.60;;
4084;SDS011;2057;50.858;6.572;2023-12-20T09:18:11;25.00;;;8.10;;
4084;SDS011;2057;50.858;6.572;2023-12-20T09:20:36;12.93;;;3.73;;
4084;SDS011;2057;50.858;6.572;2023-12-20T09:23:01;40.27;;;4.97;;
4084;SDS011;2057;50.858;6.572;2023-12-20T09:25:27;24.70;;;5.90;;
4084;SDS011;2057;50.858;6.572;2023-12-20T09:27:55;26.58;;;4.60;;
4084;SDS011;2057;50.858;6.572;2023-12-20T09:30:20;21.63;;;4.80;;
4084;SDS011;2057;50.858;6.572;2023-12-20T09:32:46;29.57;;;5.37;;
4084;SDS011;2057;50.858;6.572;2023-12-20T09:35:11;29.93;;;5.87;;
4084;SDS011;2057;50.858;6.572;2023-12-20T09:37:36;33.83;;;5.87;;
4084;SDS011;2057;50.858;6.572;2023-12-20T09:40:02;45.33;;;5.20;;
4084;SDS011;2057;50.858;6.572;2023-12-20T09:42:38;17.85;;;4.35;;
4084;SDS011;2057;50.858;6.572;2023-12-20T09:45:15;23.58;;;4.63;;
4084;SDS011;2057;50.858;6.572;2023-12-20T09:47:46;17.05;;;4.95;;
4084;SDS011;2057;50.858;6.572;2023-12-20T09:50:13;24.75;;;5.63;;
4084;SDS011;2057;50.858;6.572;2023-12-20T09:52:42;30.13;;;5.40;;
4084;SDS011;2057;50.858;6.572;2023-12-20T09:55:09;31.92;;;5.15;;
4084;SDS011;2057;50.858;6.572;2023-12-20T09:57:35;34.97;;;6.43;;
4084;SDS011;2057;50.858;6.572;2023-12-20T10:00:00;16.30;;;3.53;;
4084;SDS011;2057;50.858;6.572;2023-12-20T10:02:28;18.23;;;5.35;;
4084;SDS011;2057;50.858;6.572;2023-12-20T10:04:57;23.52;;;6.25;;
4084;SDS011;2057;50.858;6.572;2023-12-20T10:07:22;36.70;;;5.90;;
4084;SDS011;2057;50.858;6.572;2023-12-20T10:09:48;22.40;;;5.10;;
4084;SDS011;2057;50.858;6.572;2023-12-20T10:12:19;33.00;;;5.93;;
4084;SDS011;2057;50.858;6.572;2023-12-20T10:14:44;25.73;;;5.67;;
4084;SDS011;2057;50.858;6.572;2023-12-20T10:17:09;18.03;;;4.20;;
4084;SDS011;2057;50.858;6.572;2023-12-20T10:19:35;29.60;;;5.53;;
4084;SDS011;2057;50.858;6.572;2023-12-20T10:22:01;36.60;;;6.30;;
4084;SDS011;2057;50.858;6.572;2023-12-20T10:24:29;15.88;;;5.25;;
4084;SDS011;2057;50.858;6.572;2023-12-20T10:27:04;25.90;;;7.27;;
4084;SDS011;2057;50.858;6.572;2023-12-20T10:29:34;32.83;;;6.38;;
4084;SDS011;2057;50.858;6.572;2023-12-20T10:32:05;16.73;;;4.90;;
4084;SDS011;2057;50.858;6.572;2023-12-20T10:34:53;22.75;;;4.65;;
4084;SDS011;2057;50.858;6.572;2023-12-20T10:37:20;28.83;;;7.72;;
4084;SDS011;2057;50.858;6.572;2023-12-20T10:39:52;22.77;;;8.00;;
4084;SDS011;2057;50.858;6.572;2023-12-20T10:42:21;21.80;;;5.00;;
4084;SDS011;2057;50.858;6.572;2023-12-20T10:44:48;18.98;;;5.15;;
4084;SDS011;2057;50.858;6.572;2023-12-20T10:47:15;21.77;;;3.90;;
4084;SDS011;2057;50.858;6.572;2023-12-20T10:49:42;25.92;;;8.38;;
4084;SDS011;2057;50.858;6.572;2023-12-20T10:52:09;17.45;;;6.22;;
4084;SDS011;2057;50.858;6.572;2023-12-20T10:54:36;19.15;;;5.30;;
4084;SDS011;2057;50.858;6.572;2023-12-20T10:57:02;19.50;;;6.23;;
4084;SDS011;2057;50.858;6.572;2023-12-20T10:59:30;26.98;;;4.75;;
4084;SDS011;2057;50.858;6.572;2023-12-20T11:01:59;28.67;;;4.82;;
4084;SDS011;2057;50.858;6.572;2023-12-20T11:04:31;25.10;;;6.15;;
4084;SDS011;2057;50.858;6.572;2023-12-20T11:07:47;22.38;;;3.95;;
4084;SDS011;2057;50.858;6.572;2023-12-20T11:15:15;20.50;;;4.05;;
4084;SDS011;2057;50.858;6.572;2023-12-20T11:17:42;21.42;;;4.25;;
4084;SDS011;2057;50.858;6.572;2023-12-20T11:20:11;34.35;;;4.18;;
4084;SDS011;2057;50.858;6.572;2023-12-20T11:22:37;15.35;;;4.35;;
4084;SDS011;2057;50.858;6.572;2023-12-20T11:32:47;14.18;;;4.18;;
4084;SDS011;2057;50.858;6.572;2023-12-20T11:37:38;15.57;;;5.90;;
4084;SDS011;2057;50.858;6.572;2023-12-20T11:40:11;15.43;;;4.40;;
4084;SDS011;2057;50.858;6.572;2023-12-20T11:42:43;15.85;;;4.60;;
4084;SDS011;2057;50.858;6.572;2023-12-20T11:45:14;34.08;;;5.45;;
4084;SDS011;2057;50.858;6.572;2023-12-20T11:47:48;26.73;;;4.32;;
4084;SDS011;2057;50.858;6.572;2023-12-20T11:50:21;27.65;;;4.78;;
4084;SDS011;2057;50.858;6.572;2023-12-20T11:52:47;12.82;;;3.45;;
4084;SDS011;2057;50.858;6.572;2023-12-20T11:55:16;16.02;;;4.43;;
4084;SDS011;2057;50.858;6.572;2023-12-20T11:57:42;22.73;;;5.20;;
4084;SDS011;2057;50.858;6.572;2023-12-20T12:00:08;14.73;;;4.47;;
4084;SDS011;2057;50.858;6.572;2023-12-20T12:02:37;33.57;;;6.43;;
4084;SDS011;2057;50.858;6.572;2023-12-20T12:05:02;11.87;;;5.33;;
4084;SDS011;2057;50.858;6.572;2023-12-20T12:07:31;32.35;;;8.98;;
4084;SDS011;2057;50.858;6.572;2023-12-20T12:09:59;22.40;;;6.27;;
4084;SDS011;2057;50.858;6.572;2023-12-20T12:12:25;26.65;;;7.65;;
4084;SDS011;2057;50.858;6.572;2023-12-20T12:14:52;15.05;;;4.35;;
4084;SDS011;2057;50.858;6.572;2023-12-20T12:17:18;21.93;;;4.90;;
4084;SDS011;2057;50.858;6.572;2023-12-20T12:19:43;24.00;;;6.60;;
4084;SDS011;2057;50.858;6.572;2023-12-20T12:22:14;43.20;;;5.88;;
4084;SDS011;2057;50.858;6.572;2023-12-20T12:24:45;21.27;;;4.70;;
4084;SDS011;2057;50.858;6.572;2023-12-20T12:27:11;19.50;;;6.03;;
4084;SDS011;2057;50.858;6.572;2023-12-20T12:29:38;25.10;;;6.97;;
4084;SDS011;2057;50.858;6.572;2023-12-20T12:32:04;24.83;;;5.93;;
4084;SDS011;2057;50.858;6.572;2023-12-20T12:34:36;18.70;;;5.25;;
4084;SDS011;2057;50.858;6.572;2023-12-20T12:37:02;24.27;;;4.82;;
4084;SDS011;2057;50.858;6.572;2023-12-20T12:39:31;26.88;;;5.70;;
4084;SDS011;2057;50.858;6.572;2023-12-20T12:41:57;22.13;;;5.20;;
4084;SDS011;2057;50.858;6.572;2023-12-20T12:44:22;18.30;;;5.73;;
4084;SDS011;2057;50.858;6.572;2023-12-20T12:46:50;18.63;;;5.15;;
4084;SDS011;2057;50.858;6.572;2023-12-20T12:49:16;17.20;;;4.70;;
4084;SDS011;2057;50.858;6.572;2023-12-20T12:51:42;21.83;;;4.23;;
4084;SDS011;2057;50.858;6.572;2023-12-20T12:54:08;29.30;;;5.65;;
4084;SDS011;2057;50.858;6.572;2023-12-20T12:56:33;20.13;;;4.37;;
4084;SDS011;2057;50.858;6.572;2023-12-20T12:58:59;36.77;;;5.60;;
4084;SDS011;2057;50.858;6.572;2023-12-20T13:01:24;17.70;;;4.90;;
4084;SDS011;2057;50.858;6.572;2023-12-20T13:03:50;22.73;;;4.97;;
4084;SDS011;2057;50.858;6.572;2023-12-20T13:06:16;17.47;;;4.80;;
4084;SDS011;2057;50.858;6.572;2023-12-20T13:08:42;23.25;;;5.30;;
4084;SDS011;2057;50.858;6.572;2023-12-20T13:11:09;18.15;;;4.32;;
4084;SDS011;2057;50.858;6.572;2023-12-20T13:13:37;20.58;;;5.28;;
4084;SDS011;2057;50.858;6.572;2023-12-20T13:16:02;19.67;;;5.30;;
4084;SDS011;2057;50.858;6.572;2023-12-20T13:18:28;29.83;;;5.20;;
4084;SDS011;2057;50.858;6.572;2023-12-20T13:20:53;21.23;;;5.00;;
4084;SDS011;2057;50.858;6.572;2023-12-20T13:23:18;17.90;;;4.67;;
4084;SDS011;2057;50.858;6.572;2023-12-20T13:25:44;28.33;;;5.20;;
4084;SDS011;2057;50.858;6.572;2023-12-20T13:28:12;20.23;;;4.47;;
4084;SDS011;2057;50.858;6.572;2023-12-20T13:30:38;18.43;;;4.70;;
4084;SDS011;2057;50.858;6.572;2023-12-20T13:33:04;23.37;;;4.30;;
4084;SDS011;2057;50.858;6.572;2023-12-20T13:35:30;26.55;;;4.43;;
4084;SDS011;2057;50.858;6.572;2023-12-20T13:37:58;27.83;;;4.55;;
4084;SDS011;2057;50.858;6.572;2023-12-20T13:40:24;21.27;;;4.40;;
4084;SDS011;2057;50.858;6.572;2023-12-20T13:42:52;24.38;;;4.75;;
4084;SDS011;2057;50.858;6.572;2023-12-20T13:45:20;28.55;;;3.75;;
4084;SDS011;2057;50.858;6.572;2023-12-20T13:47:45;18.20;;;4.20;;
4084;SDS011;2057;50.858;6.572;2023-12-20T13:50:11;12.60;;;3.40;;
4084;SDS011;2057;50.858;6.572;2023-12-20T13:52:36;17.57;;;5.43;;
4084;SDS011;2057;50.858;6.572;2023-12-20T13:55:02;15.03;;;4.43;;
4084;SDS011;2057;50.858;6.572;2023-12-20T13:57:27;21.53;;;4.70;;
4084;SDS011;2057;50.858;6.572;2023-12-20T13:59:54;30.75;;;5.45;;
4084;SDS011;2057;50.858;6.572;2023-12-20T14:02:22;17.00;;;5.47;;
4084;SDS011;2057;50.858;6.572;2023-12-20T14:04:47;20.37;;;4.00;;
4084;SDS011;2057;50.858;6.572;2023-12-20T14:07:12;26.93;;;4.70;;
4084;SDS011;2057;50.858;6.572;2023-12-20T14:09:38;20.57;;;4.37;;
4084;SDS011;2057;50.858;6.572;2023-12-20T14:12:03;11.07;;;2.97;;
4084;SDS011;2057;50.858;6.572;2023-12-20T14:14:29;17.40;;;4.13;;
4084;SDS011;2057;50.858;6.572;2023-12-20T14:16:54;25.60;;;4.60;;
4084;SDS011;2057;50.858;6.572;2023-12-20T14:19:20;13.80;;;4.20;;
4084;SDS011;2057;50.858;6.572;2023-12-20T14:21:45;13.50;;;3.93;;
4084;SDS011;2057;50.858;6.572;2023-12-20T14:24:14;20.43;;;3.80;;
4084;SDS011;2057;50.858;6.572;2023-12-20T14:26:40;14.73;;;3.47;;
4084;SDS011;2057;50.858;6.572;2023-12-20T14:29:05;9.20;;;3.80;;
4084;SDS011;2057;50.858;6.572;2023-12-20T14:31:32;13.63;;;4.80;;
4084;SDS011;2057;50.858;6.572;2023-12-20T14:34:00;16.40;;;4.13;;
4084;SDS011;2057;50.858;6.572;2023-12-20T14:36:28;11.52;;;3.97;;
4084;SDS011;2057;50.858;6.572;2023-12-20T14:38:55;11.15;;;3.45;;
4084;SDS011;2057;50.858;6.572;2023-12-20T14:41:21;18.80;;;4.47;;
4084;SDS011;2057;50.858;6.572;2023-12-20T14:43:49;23.60;;;5.05;;
4084;SDS011;2057;50.858;6.572;2023-12-20T14:46:15;22.53;;;4.60;;
4084;SDS011;2057;50.858;6.572;2023-12-20T14:48:40;13.40;;;4.40;;
4084;SDS011;2057;50.858;6.572;2023-12-20T14:51:06;17.80;;;4.63;;
4084;SDS011;2057;50.858;6.572;2023-12-20T14:58:44;20.73;;;5.10;;
4084;SDS011;2057;50.858;6.572;2023-12-20T15:01:09;13.02;;;3.50;;
4084;SDS011;2057;50.858;6.572;2023-12-20T15:03:42;19.10;;;4.65;;
4084;SDS011;2057;50.858;6.572;2023-12-20T15:06:07;26.20;;;6.03;;
4084;SDS011;2057;50.858;6.572;2023-12-20T15:08:36;17.88;;;5.57;;
4084;SDS011;2057;50.858;6.572;2023-12-20T15:11:07;15.15;;;4.18;;
4084;SDS011;2057;50.858;6.572;2023-12-20T15:13:35;20.25;;;4.53;;
4084;SDS011;2057;50.858;6.572;2023-12-20T15:16:00;26.20;;;5.63;;
4084;SDS011;2057;50.858;6.572;2023-12-20T15:18:26;17.00;;;4.30;;